Time;durP1;ratioP1;P1;durP2;ratioP2;P2;SDS_P1;SDS_P2;PMS_P1;PMS_P2;Temp;Humidity;BMP_temperature;BMP_pressure;BME280_temperature;BME280_humidity;BME280_pressure;Samples;Min_cycle;Max_cycle;Signal;HPM_P1;HPM_P2
2022/05/13 00:01:42;;;;;;;;;22.50;18.50;;;27.11;97823.32;;;;117063;1192;24766;-58
2022/05/13 00:04:10;;;;;;;;;23.67;17.67;;;27.12;97823.38;;;;117127;1193;25534;-58
2022/05/13 00:06:38;;;;;;;;;15.50;15.50;;;27.12;97822.79;;;;117119;1193;24756;-58
2022/05/13 00:09:06;;;;;;;;;19.00;17.00;;;27.11;97825.84;;;;117066;1191;25431;-58
2022/05/13 00:11:34;;;;;;;;;19.50;15.50;;;27.08;97826.41;;;;117117;1193;25165;-58
2022/05/13 00:14:02;;;;;;;;;16.00;15.67;;;27.08;97823.52;;;;117040;1193;24835;-58
2022/05/13 00:16:30;;;;;;;;;21.50;18.00;;;27.09;97830.58;;;;117170;1192;24960;-58
2022/05/13 00:18:59;;;;;;;;;17.00;15.25;;;27.10;97830.48;;;;117215;1193;26169;-58
2022/05/13 00:21:27;;;;;;;;;16.67;13.67;;;27.12;97827.96;;;;117134;1193;25072;-58
2022/05/13 00:23:55;;;;;;;;;16.33;16.00;;;27.14;97826.02;;;;117202;1192;25370;-58
2022/05/13 00:26:24;;;;;;;;;15.33;13.33;;;27.13;97826.65;;;;117180;1193;24787;-58
2022/05/13 00:28:52;;;;;;;;;14.25;14.00;;;27.15;97829.56;;;;117085;1192;24853;-58
2022/05/13 00:31:20;;;;;;;;;16.33;15.33;;;27.11;97829.77;;;;117015;1193;25269;-57
2022/05/13 00:33:48;;;;;;;;;16.50;15.75;;;27.08;97830.84;;;;117129;1193;25144;-58
2022/05/13 00:36:16;;;;;;;;;15.75;13.75;;;27.07;97828.72;;;;117093;1191;24864;-58
2022/05/13 00:38:44;;;;;;;;;18.00;15.25;;;27.08;97824.83;;;;117114;1192;25545;-60
2022/05/13 00:41:11;;;;;;;;;16.00;15.00;;;27.05;97823.93;;;;117077;1194;25008;-59
2022/05/13 00:43:46;;;;;;;;;17.50;15.25;;;27.03;97824.48;;;;117087;1193;25213;-58
2022/05/13 00:46:14;;;;;;;;;18.75;13.75;;;27.02;97821.22;;;;117028;1193;25408;-58
2022/05/13 00:48:43;;;;;;;;;16.67;16.67;;;27.02;97821.88;;;;117141;1193;25632;-57
2022/05/13 00:51:15;;;;;;;;;15.33;14.00;;;27.00;97818.73;;;;117082;1193;25080;-57
2022/05/13 00:53:45;;;;;;;;;11.25;10.75;;;27.00;97816.59;;;;117084;1193;25622;-58
2022/05/13 00:56:14;;;;;;;;;14.50;14.50;;;27.01;97817.27;;;;117072;1194;25513;-59
2022/05/13 00:58:44;;;;;;;;;16.25;13.75;;;27.01;97816.89;;;;117033;1192;25401;-58
2022/05/13 01:01:13;;;;;;;;;17.50;14.50;;;26.98;97814.90;;;;117056;1193;25624;-59
2022/05/13 01:03:42;;;;;;;;;20.75;15.50;;;26.99;97814.77;;;;117157;1193;25203;-58
2022/05/13 01:06:13;;;;;;;;;15.67;14.67;;;27.02;97814.34;;;;117042;1193;25638;-59
2022/05/13 01:08:41;;;;;;;;;20.00;16.25;;;27.00;97813.27;;;;117166;1193;25629;-58
2022/05/13 01:11:15;;;;;;;;;12.25;10.00;;;27.00;97811.38;;;;117032;1192;26663;-60
2022/05/13 01:13:48;;;;;;;;;16.25;14.50;;;26.99;97810.27;;;;117026;1194;24842;-58
2022/05/13 01:16:16;;;;;;;;;17.33;12.67;;;26.97;97808.64;;;;117036;1194;25693;-59
2022/05/13 01:18:44;;;;;;;;;16.25;15.75;;;26.96;97809.77;;;;117038;1193;25412;-58
2022/05/13 01:21:15;;;;;;;;;16.00;14.67;;;26.96;97806.48;;;;117096;1193;24794;-60
2022/05/13 01:23:44;;;;;;;;;17.00;14.00;;;26.92;97801.73;;;;117011;1194;25343;-58
2022/05/13 01:26:26;;;;;;;;;16.25;15.50;;;26.90;97803.77;;;;117062;1192;25271;-62
2022/05/13 01:28:56;;;;;;;;;15.25;14.25;;;26.91;97803.10;;;;117022;1194;24823;-61
2022/05/13 01:31:32;;;;;;;;;16.00;16.00;;;26.91;97802.31;;;;117026;1194;25424;-61
2022/05/13 01:34:02;;;;;;;;;19.50;16.25;;;26.89;97800.68;;;;117083;1193;24982;-59
2022/05/13 01:36:31;;;;;;;;;17.00;14.00;;;26.88;97801.50;;;;117050;1193;25246;-59
2022/05/13 01:38:59;;;;;;;;;15.75;14.50;;;26.89;97804.46;;;;117060;1193;24876;-60
2022/05/13 01:41:28;;;;;;;;;19.75;16.50;;;26.87;97807.41;;;;117055;1193;24731;-59
2022/05/13 01:43:57;;;;;;;;;14.67;13.67;;;26.85;97809.73;;;;117060;1193;25036;-59
2022/05/13 01:46:26;;;;;;;;;16.00;14.00;;;26.84;97811.11;;;;117105;1193;24850;-58
2022/05/13 01:48:54;;;;;;;;;20.50;18.50;;;26.88;97811.60;;;;117060;1193;25013;-60
2022/05/13 01:51:23;;;;;;;;;13.25;13.25;;;26.87;97812.32;;;;117026;1193;24983;-59
2022/05/13 01:53:52;;;;;;;;;13.33;13.33;;;26.84;97808.46;;;;117028;1193;24907;-58
2022/05/13 01:56:20;;;;;;;;;18.33;16.00;;;26.83;97810.77;;;;117107;1194;24779;-58
2022/05/13 01:58:48;;;;;;;;;18.00;16.25;;;26.83;97811.05;;;;117037;1193;25213;-60
2022/05/13 02:01:16;;;;;;;;;17.00;16.00;;;26.83;97813.67;;;;117042;1193;25550;-60
2022/05/13 02:03:44;;;;;;;;;14.75;11.75;;;26.81;97810.12;;;;116987;1193;26203;-62
2022/05/13 02:06:25;;;;;;;;;13.00;11.33;;;26.78;97809.98;;;;117042;1193;25083;-62
2022/05/13 02:08:55;;;;;;;;;14.67;14.67;;;26.78;97809.28;;;;117150;1193;25528;-60
2022/05/13 02:11:26;;;;;;;;;16.50;15.25;;;26.82;97808.06;;;;117032;1193;25381;-61
2022/05/13 02:13:54;;;;;;;;;16.00;14.50;;;26.83;97805.28;;;;117047;1193;25596;-60
2022/05/13 02:16:22;;;;;;;;;16.75;15.50;;;26.84;97806.77;;;;117041;1193;25022;-60
2022/05/13 02:18:51;;;;;;;;;14.75;14.75;;;26.82;97806.43;;;;117220;1193;25761;-59
2022/05/13 02:21:19;;;;;;;;;16.50;14.00;;;26.83;97805.83;;;;117094;1193;25339;-59
2022/05/13 02:23:47;;;;;;;;;17.00;14.00;;;26.85;97802.27;;;;117093;1193;24738;-61
2022/05/13 02:26:16;;;;;;;;;16.50;13.50;;;26.84;97800.51;;;;117095;1193;26725;-58
2022/05/13 02:28:45;;;;;;;;;13.67;13.67;;;26.83;97802.39;;;;117071;1192;25612;-60
2022/05/13 02:31:14;;;;;;;;;11.67;11.67;;;26.82;97804.68;;;;117099;1193;25347;-58
2022/05/13 02:33:43;;;;;;;;;14.00;13.33;;;26.80;97811.00;;;;117105;1193;25082;-58
2022/05/13 02:36:12;;;;;;;;;17.75;16.75;;;26.79;97811.98;;;;117064;1193;24888;-58
2022/05/13 02:38:40;;;;;;;;;14.00;13.00;;;26.79;97809.73;;;;117058;1193;25527;-58
2022/05/13 02:41:11;;;;;;;;;16.75;12.75;;;26.77;97808.71;;;;117150;1193;24892;-59
2022/05/13 02:43:52;;;;;;;;;16.50;14.00;;;26.77;97812.13;;;;117111;1193;26195;-58
2022/05/13 02:46:23;;;;;;;;;15.50;13.00;;;26.76;97810.00;;;;117089;1192;25271;-57
2022/05/13 02:48:53;;;;;;;;;16.00;12.25;;;26.76;97810.50;;;;117048;1193;25478;-58
2022/05/13 02:51:21;;;;;;;;;15.00;14.33;;;26.75;97811.17;;;;117101;1192;25410;-58
2022/05/13 02:53:50;;;;;;;;;16.50;13.75;;;26.76;97813.40;;;;117087;1193;25698;-58
2022/05/13 02:56:17;;;;;;;;;14.75;13.25;;;26.74;97812.58;;;;117079;1191;25457;-58
2022/05/13 02:58:46;;;;;;;;;16.00;16.00;;;26.73;97813.98;;;;117041;1193;25273;-58
2022/05/13 03:01:15;;;;;;;;;17.50;12.75;;;26.71;97813.54;;;;117168;1191;25447;-58
2022/05/13 03:03:45;;;;;;;;;13.75;12.75;;;26.73;97814.13;;;;117059;1193;25347;-58
2022/05/13 03:06:14;;;;;;;;;16.50;15.50;;;26.73;97814.38;;;;117043;1191;24837;-58
2022/05/13 03:08:42;;;;;;;;;13.75;10.50;;;26.70;97813.02;;;;117077;1193;25004;-58
2022/05/13 03:11:11;;;;;;;;;13.33;11.00;;;26.71;97815.35;;;;117129;1193;25381;-58
2022/05/13 03:13:39;;;;;;;;;13.00;12.75;;;26.73;97815.25;;;;117109;1193;26177;-58
2022/05/13 03:16:10;;;;;;;;;15.25;12.00;;;26.78;97814.17;;;;117052;1192;25259;-58
2022/05/13 03:18:39;;;;;;;;;13.25;10.50;;;26.80;97817.73;;;;117143;1191;24944;-59
2022/05/13 03:21:11;;;;;;;;;14.00;8.25;;;26.79;97817.54;;;;117090;1193;25209;-58
2022/05/13 03:23:45;;;;;;;;;14.00;11.50;;;26.75;97819.25;;;;117028;1193;25566;-58
2022/05/13 03:26:15;;;;;;;;;13.33;10.67;;;26.52;97819.07;;;;117095;1193;24918;-59
2022/05/13 03:28:46;;;;;;;;;10.25;10.25;;;26.73;97824.38;;;;116983;1193;25282;-59
2022/05/13 03:31:18;;;;;;;;;16.33;12.67;;;26.72;97822.80;;;;117040;1193;24746;-58
2022/05/13 03:33:48;;;;;;;;;12.00;12.00;;;26.74;97823.58;;;;117075;1192;24709;-57
2022/05/13 03:36:16;;;;;;;;;14.33;12.67;;;26.73;97824.34;;;;117048;1193;25732;-58
2022/05/13 03:38:46;;;;;;;;;12.25;12.00;;;26.66;97824.38;;;;117151;1192;25231;-57
2022/05/13 03:41:15;;;;;;;;;12.67;12.00;;;26.69;97830.96;;;;117100;1191;25127;-58
2022/05/13 03:43:43;;;;;;;;;15.25;14.00;;;26.75;97833.19;;;;117150;1192;25432;-57
2022/05/13 03:46:11;;;;;;;;;18.00;13.00;;;26.74;97828.98;;;;117026;1192;25471;-58
2022/05/13 03:48:43;;;;;;;;;14.75;13.00;;;26.66;97830.59;;;;117074;1193;25597;-59
2022/05/13 03:51:11;;;;;;;;;12.00;10.50;;;26.65;97836.60;;;;116980;1193;25531;-60
2022/05/13 03:53:40;;;;;;;;;16.00;12.50;;;26.59;97837.22;;;;117127;1192;25352;-59
2022/05/13 03:56:09;;;;;;;;;17.33;13.00;;;26.60;97838.27;;;;117082;1193;24740;-60
2022/05/13 03:58:39;;;;;;;;;15.00;11.67;;;26.59;97841.67;;;;117076;1193;25379;-60
2022/05/13 04:01:12;;;;;;;;;15.50;11.50;;;26.64;97838.62;;;;117159;1191;25604;-60
2022/05/13 04:03:41;;;;;;;;;15.50;11.25;;;26.70;97845.98;;;;117140;1193;25465;-60
2022/05/13 04:09:05;;;;;;;;;6.50;3.75;;;26.81;97853.33;;;;117084;1192;25335;-60
2022/05/13 04:11:38;;;;;;;;;13.00;10.50;;;26.80;97856.02;;;;117046;1193;25232;-61
2022/05/13 04:16:55;;;;;;;;;18.75;15.50;;;26.76;97859.59;;;;117115;1193;25805;-61
2022/05/13 04:19:24;;;;;;;;;15.33;13.67;;;26.74;97861.51;;;;117216;1193;25165;-62
2022/05/13 04:21:52;;;;;;;;;11.33;10.33;;;26.71;97864.26;;;;117050;1192;24803;-60
2022/05/13 04:24:25;;;;;;;;;18.25;14.50;;;26.72;97863.16;;;;117100;1193;24880;-58
2022/05/13 04:26:53;;;;;;;;;21.00;13.75;;;26.76;97865.81;;;;117063;1192;25401;-55
2022/05/13 04:29:23;;;;;;;;;19.67;15.33;;;26.78;97865.48;;;;117084;1193;25341;-58
2022/05/13 04:31:52;;;;;;;;;14.50;14.00;;;26.75;97864.43;;;;117088;1193;24929;-58
2022/05/13 04:34:23;;;;;;;;;15.50;10.25;;;26.79;97865.62;;;;117735;1193;25399;-58
2022/05/13 04:36:51;;;;;;;;;18.67;16.00;;;27.00;97866.44;;;;117132;1193;26041;-58
2022/05/13 04:39:22;;;;;;;;;22.50;19.00;;;26.94;97864.57;;;;117020;1192;25484;-57
2022/05/13 04:44:39;;;;;;;;;24.75;23.25;;;26.73;97868.19;;;;116971;1194;25132;-60
2022/05/13 04:49:56;;;;;;;;;19.00;17.00;;;26.33;97866.83;;;;116985;1192;24843;-58
2022/05/13 04:52:24;;;;;;;;;22.00;20.67;;;26.44;97868.36;;;;117141;1193;25798;-57
2022/05/13 04:54:54;;;;;;;;;27.00;21.00;;;26.53;97869.89;;;;117115;1193;25901;-58
2022/05/13 04:57:22;;;;;;;;;29.00;23.00;;;26.58;97869.86;;;;117162;1191;25513;-58
2022/05/13 04:59:50;;;;;;;;;24.25;20.50;;;26.58;97875.59;;;;117065;1192;25797;-58
2022/05/13 05:02:18;;;;;;;;;29.00;20.50;;;26.61;97879.10;;;;117473;1193;24826;-57
2022/05/13 05:04:46;;;;;;;;;24.50;19.75;;;26.79;97879.10;;;;117307;1193;25468;-57
2022/05/13 05:07:14;;;;;;;;;16.25;16.25;;;26.82;97879.38;;;;117104;1193;25175;-58
2022/05/13 05:09:42;;;;;;;;;20.33;18.67;;;26.78;97877.29;;;;117100;1193;25500;-59
2022/05/13 05:12:10;;;;;;;;;22.50;20.25;;;26.79;97871.69;;;;117138;1193;26260;-58
2022/05/13 05:14:38;;;;;;;;;28.00;20.00;;;26.80;97871.75;;;;117072;1193;24974;-58
2022/05/13 05:17:05;;;;;;;;;29.00;19.67;;;26.80;97873.17;;;;117064;1193;25210;-57
2022/05/13 05:19:34;;;;;;;;;21.25;17.50;;;26.79;97877.20;;;;117064;1193;25197;-57
2022/05/13 05:22:05;;;;;;;;;19.00;16.00;;;26.78;97880.16;;;;117004;1191;25782;-57
2022/05/13 05:24:32;;;;;;;;;21.00;16.75;;;26.73;97877.79;;;;117032;1193;25398;-57
2022/05/13 05:27:00;;;;;;;;;25.50;18.00;;;26.72;97879.08;;;;116999;1193;25322;-58
2022/05/13 05:29:28;;;;;;;;;23.67;19.33;;;26.71;97883.17;;;;117047;1193;25346;-57
2022/05/13 05:31:56;;;;;;;;;24.25;16.75;;;26.70;97886.85;;;;117009;1193;25357;-58
2022/05/13 05:34:24;;;;;;;;;22.25;17.75;;;26.68;97886.88;;;;117017;1193;25161;-58
2022/05/13 05:36:52;;;;;;;;;24.00;21.00;;;26.69;97885.51;;;;117015;1193;25563;-58
2022/05/13 05:39:20;;;;;;;;;26.67;21.67;;;26.70;97884.88;;;;116981;1193;25554;-59
2022/05/13 05:41:53;;;;;;;;;24.50;19.25;;;26.69;97878.61;;;;117024;1193;24967;-58
2022/05/13 05:44:21;;;;;;;;;20.67;18.00;;;26.72;97878.80;;;;116983;1194;26595;-57
2022/05/13 05:46:49;;;;;;;;;22.75;15.00;;;26.72;97880.52;;;;116971;1193;25042;-57
2022/05/13 05:49:17;;;;;;;;;22.33;18.00;;;26.72;97882.90;;;;117051;1193;25507;-58
2022/05/13 05:51:44;;;;;;;;;23.25;17.75;;;26.72;97883.19;;;;117019;1193;25546;-57
2022/05/13 05:57:14;;;;;;;;;25.00;16.75;;;26.72;97888.31;;;;117125;1193;25461;-57
2022/05/13 05:59:46;;;;;;;;;19.25;15.75;;;26.72;97891.27;;;;117048;1194;25355;-57
2022/05/13 06:02:15;;;;;;;;;19.50;15.50;;;26.72;97888.16;;;;117045;1193;25610;-58
2022/05/13 06:04:43;;;;;;;;;19.50;15.50;;;26.74;97885.75;;;;117077;1193;25324;-58
2022/05/13 06:07:16;;;;;;;;;24.75;19.75;;;26.76;97887.50;;;;117081;1192;25440;-57
2022/05/13 06:09:51;;;;;;;;;19.75;15.75;;;26.75;97887.86;;;;117080;1193;25677;-58
2022/05/13 06:12:19;;;;;;;;;18.75;16.75;;;26.78;97886.38;;;;117109;1191;25457;-58
2022/05/13 06:14:47;;;;;;;;;20.00;18.50;;;26.76;97888.64;;;;117039;1194;24976;-58
2022/05/13 06:17:15;;;;;;;;;18.50;15.50;;;26.76;97890.98;;;;117054;1192;26263;-58
2022/05/13 06:19:42;;;;;;;;;19.00;18.50;;;26.76;97890.56;;;;117144;1192;25111;-58
2022/05/13 06:22:10;;;;;;;;;17.75;14.75;;;26.78;97890.67;;;;117072;1193;25647;-57
2022/05/13 06:24:39;;;;;;;;;16.75;16.75;;;26.78;97886.98;;;;117077;1193;24962;-57
2022/05/13 06:27:09;;;;;;;;;26.75;18.00;;;26.78;97887.30;;;;117118;1192;25505;-58
2022/05/13 06:29:37;;;;;;;;;27.00;20.50;;;26.80;97887.48;;;;117030;1193;25306;-58
2022/05/13 06:32:06;;;;;;;;;22.25;19.00;;;26.80;97887.25;;;;117098;1193;24886;-58
2022/05/13 06:34:34;;;;;;;;;20.50;15.50;;;26.79;97891.94;;;;117077;1193;24998;-63
2022/05/13 06:37:02;;;;;;;;;24.67;18.67;;;26.81;97885.95;;;;117056;1193;25079;-58
2022/05/13 06:39:30;;;;;;;;;20.00;16.00;;;26.80;97884.64;;;;117075;1193;25023;-59
2022/05/13 06:41:58;;;;;;;;;21.00;15.25;;;26.80;97886.06;;;;117125;1193;25335;-62
2022/05/13 06:44:26;;;;;;;;;21.25;15.50;;;26.81;97879.86;;;;117021;1193;25311;-59
2022/05/13 06:46:54;;;;;;;;;23.25;17.75;;;26.80;97877.21;;;;117099;1192;25258;-59
2022/05/13 06:49:21;;;;;;;;;18.75;14.50;;;26.80;97879.41;;;;117103;1192;24821;-58
2022/05/13 06:51:49;;;;;;;;;21.00;17.00;;;26.79;97881.33;;;;117016;1193;25540;-57
2022/05/13 06:54:17;;;;;;;;;25.33;17.67;;;26.79;97882.25;;;;117088;1193;25449;-57
2022/05/13 06:56:47;;;;;;;;;17.00;11.50;;;26.79;97885.59;;;;117054;1193;25600;-57
2022/05/13 06:59:15;;;;;;;;;23.75;17.25;;;26.80;97883.64;;;;117033;1193;25635;-57
2022/05/13 07:01:45;;;;;;;;;17.50;14.75;;;26.79;97882.71;;;;117030;1193;25020;-57
2022/05/13 07:04:14;;;;;;;;;20.33;16.00;;;26.79;97887.14;;;;117090;1193;25145;-58
2022/05/13 07:06:45;;;;;;;;;18.75;15.25;;;26.83;97889.67;;;;117314;1193;26305;-58
2022/05/13 07:09:15;;;;;;;;;19.75;16.50;;;26.89;97887.83;;;;117471;1192;25738;-58
2022/05/13 07:11:45;;;;;;;;;25.33;19.67;;;27.03;97889.75;;;;117024;1192;25980;-57
2022/05/13 07:14:16;;;;;;;;;18.33;14.67;;;26.98;97891.23;;;;117014;1193;24837;-57
2022/05/13 07:16:46;;;;;;;;;13.00;13.00;;;26.96;97885.11;;;;117047;1193;24995;-57
2022/05/13 07:19:14;;;;;;;;;20.50;16.25;;;26.92;97884.18;;;;117066;1193;25420;-58
2022/05/13 07:21:47;;;;;;;;;21.75;17.25;;;26.91;97880.81;;;;117146;1191;25051;-57
2022/05/13 07:24:17;;;;;;;;;19.67;16.33;;;26.92;97881.86;;;;116985;1193;24942;-58
2022/05/13 07:26:52;;;;;;;;;19.33;15.00;;;26.92;97879.00;;;;117082;1193;26186;-57
2022/05/13 07:29:20;;;;;;;;;16.00;14.67;;;26.92;97874.61;;;;117062;1193;25602;-58
2022/05/13 07:31:51;;;;;;;;;18.75;16.25;;;26.92;97874.47;;;;117041;1193;26299;-58
2022/05/13 07:34:21;;;;;;;;;18.25;15.75;;;26.92;97874.53;;;;117034;1193;25417;-58
2022/05/13 07:36:53;;;;;;;;;24.00;15.33;;;26.91;97872.38;;;;117034;1193;25623;-57
2022/05/13 07:42:13;;;;;;;;;20.00;15.67;;;26.92;97878.48;;;;117064;1193;24740;-57
2022/05/13 07:44:43;;;;;;;;;22.50;16.00;;;26.91;97877.87;;;;117109;1193;25020;-57
2022/05/13 07:47:15;;;;;;;;;26.50;18.00;;;26.92;97874.84;;;;117021;1193;25679;-58
2022/05/13 07:49:44;;;;;;;;;17.25;15.25;;;26.91;97872.23;;;;117043;1193;26051;-57
2022/05/13 07:52:12;;;;;;;;;16.25;14.50;;;26.91;97869.40;;;;117070;1193;25005;-58
2022/05/13 07:54:41;;;;;;;;;16.75;15.00;;;26.92;97866.77;;;;117064;1193;25568;-58
2022/05/13 07:57:12;;;;;;;;;16.33;16.00;;;26.90;97863.25;;;;117063;1193;25177;-59
2022/05/13 08:02:30;;;;;;;;;20.50;17.50;;;26.92;97861.64;;;;117152;1192;25185;-57
2022/05/13 08:05:02;;;;;;;;;21.50;13.00;;;26.92;97857.63;;;;117027;1193;25128;-58
2022/05/13 08:07:30;;;;;;;;;18.67;16.00;;;26.92;97857.79;;;;117051;1193;25137;-57
2022/05/13 08:09:59;;;;;;;;;21.00;17.50;;;26.91;97859.80;;;;117033;1193;25383;-59
2022/05/13 08:12:31;;;;;;;;;17.25;15.75;;;26.93;97861.34;;;;116962;1194;24880;-60
2022/05/13 08:15:01;;;;;;;;;14.25;14.25;;;26.93;97859.22;;;;117004;1194;24984;-61
2022/05/13 08:17:36;;;;;;;;;21.50;17.50;;;26.94;97858.28;;;;117025;1193;25373;-59
2022/05/13 08:20:05;;;;;;;;;14.00;13.00;;;26.92;97856.60;;;;117076;1193;24870;-57
2022/05/13 08:22:35;;;;;;;;;20.25;16.25;;;26.94;97853.08;;;;116880;1194;25289;-60
2022/05/13 08:25:07;;;;;;;;;18.00;17.00;;;26.94;97852.98;;;;117033;1193;25591;-61
2022/05/13 08:27:38;;;;;;;;;15.25;12.50;;;26.94;97850.08;;;;117021;1193;25118;-61
2022/05/13 08:30:10;;;;;;;;;17.00;11.00;;;26.93;97845.45;;;;117039;1192;24672;-57
2022/05/13 08:32:40;;;;;;;;;17.50;14.00;;;26.95;97840.82;;;;117041;1194;25429;-57
2022/05/13 08:35:11;;;;;;;;;24.67;16.00;;;26.93;97837.27;;;;117099;1194;25767;-58
2022/05/13 08:37:55;;;;;;;;;17.50;16.50;;;26.94;97834.61;;;;117033;1194;25296;-57
2022/05/13 08:40:52;;;;;;;;;20.50;16.00;;;26.95;97838.27;;;;117050;1194;25755;-57
2022/05/13 08:43:58;;;;;;;;;15.25;14.25;;;26.95;97837.03;;;;117019;1193;25068;-56
2022/05/13 08:46:45;;;;;;;;;18.33;14.67;;;27.02;97833.45;;;;117018;1193;26064;-58
2022/05/13 08:50:02;;;;;;;;;17.00;16.67;;;27.09;97833.00;;;;116994;1194;25406;-58
2022/05/13 08:55:33;;;;;;;;;9.50;9.50;;;27.03;97825.29;;;;117014;1192;25468;-58
2022/05/13 08:58:13;;;;;;;;;23.75;17.00;;;26.97;97825.83;;;;117033;1193;25771;-58
2022/05/13 09:00:49;;;;;;;;;18.25;14.50;;;26.98;97823.80;;;;117041;1192;25147;-58
2022/05/13 09:03:44;;;;;;;;;15.33;13.67;;;27.01;97819.98;;;;117031;1194;25384;-57
2022/05/13 09:06:27;;;;;;;;;23.67;16.33;;;27.03;97816.83;;;;117118;1193;25659;-58
2022/05/13 09:09:01;;;;;;;;;18.67;16.67;;;27.04;97812.24;;;;116979;1194;24890;-58
2022/05/13 09:11:34;;;;;;;;;18.50;16.50;;;27.02;97809.08;;;;116965;1193;25039;-58
2022/05/13 09:14:25;;;;;;;;;19.25;16.75;;;27.01;97806.32;;;;117038;1194;26046;-59
2022/05/13 09:17:29;;;;;;;;;22.00;16.25;;;27.02;97796.79;;;;117020;1192;25004;-56
2022/05/13 09:20:11;;;;;;;;;15.75;9.25;;;27.02;97797.36;;;;117122;1192;25265;-57
2022/05/13 09:22:53;;;;;;;;;16.50;16.00;;;27.03;97791.00;;;;116968;1193;25482;-57
2022/05/13 09:25:27;;;;;;;;;16.67;15.00;;;27.00;97791.67;;;;116995;1193;25260;-56
2022/05/13 09:28:01;;;;;;;;;23.33;15.00;;;27.02;97789.98;;;;116986;1193;25315;-57
2022/05/13 09:30:39;;;;;;;;;21.33;15.67;;;27.00;97784.48;;;;116999;1193;25003;-57
2022/05/13 09:33:19;;;;;;;;;19.00;16.00;;;27.01;97785.89;;;;117065;1193;25727;-57
2022/05/13 09:35:51;;;;;;;;;15.25;10.50;;;27.01;97784.04;;;;117057;1193;25622;-57
2022/05/13 09:38:25;;;;;;;;;15.50;14.50;;;26.99;97778.81;;;;116992;1193;25242;-58
2022/05/13 09:41:03;;;;;;;;;19.50;14.00;;;26.99;97777.74;;;;117007;1192;24719;-58
2022/05/13 09:43:42;;;;;;;;;16.67;16.00;;;27.01;97773.69;;;;117099;1191;24888;-58
2022/05/13 09:46:22;;;;;;;;;15.50;14.00;;;27.01;97770.41;;;;117068;1193;25801;-57
2022/05/13 09:49:33;;;;;;;;;18.50;13.50;;;27.01;97764.39;;;;116971;1194;24890;-57
2022/05/13 09:52:13;;;;;;;;;21.50;15.50;;;27.13;97758.60;;;;117058;1193;24926;-58
2022/05/13 09:54:47;;;;;;;;;16.00;13.50;;;27.09;97753.36;;;;117079;1193;24849;-57
2022/05/13 09:57:33;;;;;;;;;21.00;17.00;;;27.08;97748.02;;;;117006;1193;24747;-57
2022/05/13 10:00:17;;;;;;;;;22.00;18.75;;;27.10;97742.11;;;;117015;1193;25053;-58
2022/05/13 10:02:50;;;;;;;;;14.50;11.75;;;27.08;97737.30;;;;117081;1192;26230;-58
2022/05/13 10:05:26;;;;;;;;;17.00;13.75;;;27.08;97737.58;;;;117009;1194;25181;-57
2022/05/13 10:08:03;;;;;;;;;16.00;14.33;;;27.06;97740.48;;;;117013;1193;25124;-57
2022/05/13 10:16:35;;;;;;;;;14.00;14.00;;;27.07;97730.46;;;;117093;1194;24891;-57
2022/05/13 10:19:28;;;;;;;;;19.25;15.00;;;27.08;97727.60;;;;117045;1194;25092;-59
2022/05/13 10:22:53;;;;;;;;;18.50;18.00;;;27.09;97725.35;;;;117018;1193;25708;-57
2022/05/13 10:25:28;;;;;;;;;16.75;15.00;;;27.16;97713.98;;;;116785;1198;25561;-56
2022/05/13 10:28:07;;;;;;;;;14.50;11.50;;;27.16;97714.90;;;;117002;1193;25034;-57
2022/05/13 10:30:56;;;;;;;;;14.00;13.00;;;27.16;97714.01;;;;117089;1193;25294;-57
2022/05/13 10:33:41;;;;;;;;;17.33;16.33;;;27.18;97714.92;;;;117133;1193;25096;-56
2022/05/13 10:36:16;;;;;;;;;16.00;15.00;;;27.18;97717.39;;;;117046;1193;25669;-56
2022/05/13 10:39:25;;;;;;;;;16.33;16.00;;;27.16;97718.21;;;;117074;1193;25476;-57
2022/05/13 10:42:02;;;;;;;;;15.33;15.00;;;27.15;97719.00;;;;116995;1193;25277;-58
2022/05/13 10:44:43;;;;;;;;;15.00;14.00;;;27.11;97714.15;;;;117010;1193;25447;-57
2022/05/13 10:47:18;;;;;;;;;12.67;12.67;;;27.14;97714.70;;;;117072;1193;25156;-57
2022/05/13 10:49:46;;;;;;;;;13.00;12.33;;;27.14;97713.89;;;;117039;1193;25597;-58
2022/05/13 10:52:30;;;;;;;;;15.00;11.00;;;27.14;97713.93;;;;117126;1192;25650;-56
2022/05/13 10:55:05;;;;;;;;;13.67;11.33;;;27.13;97711.93;;;;117071;1193;24868;-57
2022/05/13 10:58:00;;;;;;;;;15.67;14.33;;;27.13;97713.48;;;;117055;1193;25640;-57
2022/05/13 11:00:59;;;;;;;;;15.25;12.25;;;27.14;97712.52;;;;117083;1193;25482;-56
2022/05/13 11:03:34;;;;;;;;;14.33;12.33;;;27.22;97703.52;;;;116911;1193;25362;-57
2022/05/13 11:06:43;;;;;;;;;16.25;13.50;;;27.21;97698.45;;;;117265;1192;24876;-57
2022/05/13 11:09:24;;;;;;;;;17.50;16.50;;;27.33;97693.10;;;;117138;1193;24809;-58
2022/05/13 11:12:26;;;;;;;;;16.00;16.00;;;27.34;97690.52;;;;117101;1193;25651;-56
2022/05/13 11:15:19;;;;;;;;;16.50;13.25;;;27.41;97682.41;;;;116933;1193;25049;-56
2022/05/13 11:18:11;;;;;;;;;19.33;14.00;;;27.36;97677.49;;;;117023;1193;25789;-57
2022/05/13 11:20:59;;;;;;;;;22.75;18.50;;;27.27;97674.01;;;;117069;1192;25374;-57
2022/05/13 11:25:54;;;;;;;;;19.50;16.75;;;27.22;97666.94;;;;117040;1193;25336;-57
2022/05/13 11:27:01;;;;;;;;;17.00;15.25;;;27.26;97664.65;;;;117016;1192;25667;-57
2022/05/13 11:29:35;;;;;;;;;17.00;13.00;;;27.27;97666.88;;;;117039;1193;24827;-56
2022/05/13 11:32:23;;;;;;;;;18.00;15.50;;;27.21;97671.26;;;;117079;1193;25567;-57
2022/05/13 11:35:03;;;;;;;;;15.50;15.00;;;27.18;97681.36;;;;117007;1193;24777;-59
2022/05/13 11:37:36;;;;;;;;;14.67;14.67;;;27.12;97695.90;;;;117072;1193;25461;-59
2022/05/13 11:40:18;;;;;;;;;15.00;13.50;;;27.10;97703.41;;;;117037;1193;24950;-58
2022/05/13 11:43:20;;;;;;;;;16.25;13.50;;;27.13;97722.34;;;;117006;1193;25034;-57
2022/05/13 11:45:59;;;;;;;;;17.25;13.75;;;27.24;97737.41;;;;116844;1193;25409;-57
2022/05/13 11:48:43;;;;;;;;;11.75;11.00;;;27.21;97744.44;;;;117000;1193;25617;-57
2022/05/13 11:51:29;;;;;;;;;11.75;11.75;;;27.16;97736.21;;;;116940;1193;24909;-57
2022/05/13 11:54:03;;;;;;;;;15.25;13.50;;;27.14;97728.23;;;;117002;1193;25144;-60
2022/05/13 11:56:35;;;;;;;;;14.00;14.00;;;27.10;97717.40;;;;117048;1193;25515;-57
2022/05/13 11:59:11;;;;;;;;;15.50;13.50;;;27.08;97711.02;;;;117012;1193;24957;-57
2022/05/13 12:01:46;;;;;;;;;12.67;11.33;;;27.08;97706.41;;;;117004;1193;25344;-59
2022/05/13 12:04:17;;;;;;;;;14.00;13.50;;;27.08;97706.95;;;;117030;1193;25494;-57
2022/05/13 12:06:49;;;;;;;;;15.50;12.25;;;27.08;97705.39;;;;117003;1193;25332;-59
2022/05/13 12:09:25;;;;;;;;;15.00;12.33;;;27.07;97708.25;;;;117057;1193;24839;-59
2022/05/13 12:12:06;;;;;;;;;14.00;13.75;;;27.06;97705.20;;;;116972;1193;24827;-60
2022/05/13 12:15:03;;;;;;;;;14.00;13.67;;;27.06;97694.16;;;;117090;1193;25045;-57
2022/05/13 12:17:42;;;;;;;;;16.50;12.50;;;27.13;97681.63;;;;117042;1193;25418;-57
2022/05/13 12:20:38;;;;;;;;;15.75;13.75;;;27.14;97672.19;;;;117089;1193;25562;-57
2022/05/13 12:23:26;;;;;;;;;14.67;14.00;;;27.16;97674.11;;;;117039;1193;24770;-58
2022/05/13 12:26:04;;;;;;;;;12.00;11.00;;;27.14;97669.21;;;;117066;1193;25765;-58
2022/05/13 12:28:57;;;;;;;;;15.00;11.75;;;27.16;97666.39;;;;117032;1193;25056;-58
2022/05/13 12:31:29;;;;;;;;;17.00;13.33;;;27.20;97664.97;;;;116994;1193;24830;-58
2022/05/13 12:39:58;;;;;;;;;14.00;13.67;;;27.28;97645.73;;;;117025;1193;25726;-57
2022/05/13 12:42:49;;;;;;;;;9.75;8.25;;;27.28;97638.65;;;;117016;1193;24912;-57
2022/05/13 12:45:24;;;;;;;;;13.50;13.50;;;27.32;97629.83;;;;117027;1193;24917;-60
2022/05/13 12:48:06;;;;;;;;;20.50;13.00;;;27.33;97624.82;;;;117031;1193;25275;-59
2022/05/13 12:51:17;;;;;;;;;14.25;12.00;;;27.35;97618.96;;;;117025;1193;25153;-57
2022/05/13 12:53:57;;;;;;;;;11.50;10.75;;;27.44;97615.04;;;;117037;1193;25674;-57
2022/05/13 12:56:28;;;;;;;;;11.75;10.00;;;27.48;97617.11;;;;117026;1193;25581;-57
2022/05/13 12:59:14;;;;;;;;;12.33;12.33;;;27.48;97615.16;;;;117010;1193;24925;-57